createdAt,value
2019-02-08T00:01:21.810Z,15.70
2019-02-08T00:03:51.035Z,18.57
2019-02-08T00:06:20.291Z,16.80
2019-02-08T00:08:49.598Z,19.70
2019-02-08T00:11:18.928Z,16.73
2019-02-08T00:13:48.115Z,19.20
2019-02-08T00:16:17.486Z,16.20
2019-02-08T00:18:47.183Z,16.17
2019-02-08T00:21:16.379Z,18.63
2019-02-08T00:23:45.594Z,15.90
2019-02-08T00:26:14.840Z,15.27
2019-02-08T00:28:44.107Z,15.13
2019-02-08T00:31:13.454Z,15.40
2019-02-08T00:33:43.081Z,17.10
2019-02-08T00:36:12.261Z,15.87
2019-02-08T00:38:41.411Z,16.10
2019-02-08T00:41:10.734Z,13.80
2019-02-08T00:43:39.885Z,14.20
2019-02-08T00:46:09.141Z,14.80
2019-02-08T00:48:38.363Z,13.47
2019-02-08T00:51:07.592Z,14.20
2019-02-08T00:53:37.006Z,12.47
2019-02-08T00:56:06.541Z,13.50
2019-02-08T00:58:35.913Z,12.53
2019-02-08T01:01:05.835Z,13.80
2019-02-08T01:03:35.014Z,13.33
2019-02-08T01:06:05.338Z,14.00
2019-02-08T01:08:34.746Z,13.50
2019-02-08T01:11:03.982Z,13.87
2019-02-08T01:13:33.230Z,12.97
2019-02-08T01:16:02.468Z,13.23
2019-02-08T01:18:31.795Z,15.90
2019-02-08T01:21:00.952Z,13.87
2019-02-08T01:23:30.253Z,14.10
2019-02-08T01:25:59.407Z,15.77
2019-02-08T01:28:28.663Z,14.80
2019-02-08T01:30:57.814Z,15.37
2019-02-08T01:33:27.061Z,13.77
2019-02-08T01:35:56.294Z,14.47
2019-02-08T01:38:25.661Z,15.03
2019-02-08T01:40:54.927Z,17.03
2019-02-08T01:43:24.190Z,15.07
2019-02-08T01:45:53.483Z,15.03
2019-02-08T01:48:22.819Z,14.90
2019-02-08T01:50:52.014Z,14.47
2019-02-08T01:53:21.194Z,14.70
2019-02-08T01:55:50.441Z,15.23
2019-02-08T01:58:19.622Z,13.97
2019-02-08T02:00:48.782Z,14.97
2019-02-08T02:03:18.459Z,16.67
2019-02-08T02:05:47.619Z,13.97
2019-02-08T02:08:16.802Z,13.53
2019-02-08T02:10:46.533Z,15.20
2019-02-08T02:13:15.784Z,12.73
2019-02-08T02:15:45.414Z,13.27
2019-02-08T02:18:14.947Z,12.23
2019-02-08T02:20:44.300Z,12.43
2019-02-08T02:23:15.494Z,13.30
2019-02-08T02:25:45.062Z,11.90
2019-02-08T02:28:14.512Z,11.53
2019-02-08T02:30:43.859Z,11.33
2019-02-08T02:33:13.907Z,10.30
2019-02-08T02:35:43.365Z,12.00
2019-02-08T02:38:13.006Z,9.83
2019-02-08T02:40:42.248Z,9.80
2019-02-08T02:43:11.464Z,11.97
2019-02-08T02:45:42.622Z,10.10
2019-02-08T02:48:13.991Z,11.93
2019-02-08T02:50:43.441Z,10.67
2019-02-08T02:53:12.942Z,10.27
2019-02-08T02:55:42.209Z,11.97
2019-02-08T02:58:11.471Z,11.80
2019-02-08T03:00:42.848Z,11.50
2019-02-08T03:03:13.668Z,12.20
2019-02-08T03:05:42.905Z,13.23
2019-02-08T03:08:13.422Z,10.73
2019-02-08T03:10:42.934Z,11.60
2019-02-08T03:13:12.737Z,11.63
2019-02-08T03:15:41.917Z,10.63
2019-02-08T03:18:11.402Z,11.83
2019-02-08T03:20:40.662Z,10.70
2019-02-08T03:23:09.985Z,10.63
2019-02-08T03:25:39.215Z,10.30
2019-02-08T03:28:08.462Z,9.47
2019-02-08T03:30:43.230Z,10.77
2019-02-08T03:33:12.453Z,12.83
2019-02-08T03:35:41.683Z,10.40
2019-02-08T03:38:11.029Z,12.13
2019-02-08T03:40:40.262Z,10.07
2019-02-08T03:43:09.509Z,10.00
2019-02-08T03:45:40.850Z,9.37
2019-02-08T03:48:10.338Z,8.43
2019-02-08T03:50:39.995Z,8.27
2019-02-08T03:53:09.715Z,7.80
2019-02-08T03:55:39.700Z,8.67
2019-02-08T03:58:10.148Z,9.30
2019-02-08T04:01:00.720Z,11.17
2019-02-08T04:03:30.351Z,10.17
2019-02-08T04:05:59.598Z,12.50
2019-02-08T04:08:28.866Z,11.17
2019-02-08T04:10:58.593Z,12.23
2019-02-08T04:13:27.863Z,11.10
2019-02-08T04:15:57.094Z,11.33
2019-02-08T04:18:26.414Z,11.67
2019-02-08T04:20:55.567Z,12.77
2019-02-08T04:23:24.819Z,11.60
2019-02-08T04:25:54.141Z,12.50
2019-02-08T04:28:23.513Z,12.63
2019-02-08T04:30:52.746Z,12.10
2019-02-08T04:33:22.000Z,14.13
2019-02-08T04:35:51.245Z,13.40
2019-02-08T04:38:20.595Z,12.40
2019-02-08T04:40:49.830Z,13.60
2019-02-08T04:43:19.069Z,13.47
2019-02-08T04:45:48.294Z,13.57
2019-02-08T04:48:17.503Z,15.40
2019-02-08T04:50:46.733Z,14.70
2019-02-08T04:53:15.950Z,15.67
2019-02-08T04:55:45.176Z,13.13
2019-02-08T04:58:14.379Z,15.50
2019-02-08T05:00:43.594Z,16.27
2019-02-08T05:03:12.852Z,16.87
2019-02-08T05:05:42.076Z,14.97
2019-02-08T05:08:11.455Z,15.37
2019-02-08T05:10:40.678Z,17.00
2019-02-08T05:13:09.862Z,16.10
2019-02-08T05:15:39.088Z,18.13
2019-02-08T05:18:08.360Z,18.07
2019-02-08T05:20:37.504Z,16.07
2019-02-08T05:23:06.754Z,16.70
2019-02-08T05:25:35.933Z,18.43
2019-02-08T05:28:05.190Z,18.53
2019-02-08T05:30:35.573Z,20.37
2019-02-08T05:33:05.764Z,19.37
2019-02-08T05:35:34.945Z,18.40
2019-02-08T05:38:04.470Z,21.80
2019-02-08T05:40:33.732Z,19.67
2019-02-08T05:43:02.973Z,21.10
2019-02-08T05:45:32.292Z,18.30
2019-02-08T05:48:01.519Z,19.67
2019-02-08T05:50:30.769Z,18.67
2019-02-08T05:52:59.919Z,23.13
2019-02-08T05:55:30.212Z,20.77
2019-02-08T05:57:59.624Z,20.93
2019-02-08T06:00:39.901Z,20.40
2019-02-08T06:03:09.414Z,21.17
2019-02-08T06:05:39.520Z,19.37
2019-02-08T06:08:08.968Z,21.80
2019-02-08T06:10:38.248Z,18.63
2019-02-08T06:13:08.570Z,20.23
2019-02-08T06:15:38.170Z,20.93
2019-02-08T06:18:08.394Z,18.90
2019-02-08T06:20:37.936Z,18.63
2019-02-08T06:23:07.907Z,20.63
2019-02-08T06:25:37.663Z,19.43
2019-02-08T06:28:07.711Z,19.47
2019-02-08T06:30:37.471Z,22.20
2019-02-08T06:33:08.143Z,18.80
2019-02-08T06:35:37.329Z,20.83
2019-02-08T06:38:07.657Z,16.87
2019-02-08T06:40:39.380Z,19.97
2019-02-08T06:43:08.534Z,16.90
2019-02-08T06:45:37.703Z,16.30
2019-02-08T06:48:08.170Z,16.13
2019-02-08T06:50:37.363Z,16.30
2019-02-08T06:53:06.613Z,19.17
2019-02-08T06:55:35.857Z,16.90
2019-02-08T06:58:27.055Z,19.33
2019-02-08T07:01:18.330Z,17.17
2019-02-08T07:04:22.811Z,16.27
2019-02-08T07:07:09.613Z,16.27
2019-02-08T07:10:13.215Z,16.70
2019-02-08T07:12:52.459Z,17.07
2019-02-08T07:15:40.667Z,17.47
2019-02-08T07:18:28.879Z,16.00
2019-02-08T07:21:26.702Z,16.30
2019-02-08T07:24:11.032Z,16.67
2019-02-08T07:27:02.368Z,16.50
2019-02-08T07:29:45.261Z,16.20
2019-02-08T07:32:33.473Z,17.50
2019-02-08T07:35:26.553Z,17.10
2019-02-08T07:38:27.291Z,17.67
2019-02-08T07:41:20.043Z,16.90
2019-02-08T07:44:04.012Z,18.03
2019-02-08T07:46:53.799Z,16.70
2019-02-08T07:49:48.658Z,16.73
2019-02-08T07:52:39.650Z,15.27
2019-02-08T07:55:32.427Z,18.57
2019-02-08T07:58:20.716Z,15.40
2019-02-08T08:01:01.956Z,13.70
2019-02-08T08:03:50.643Z,14.37
2019-02-08T08:06:51.974Z,13.00
2019-02-08T08:09:50.362Z,13.23
2019-02-08T08:12:45.879Z,14.73
2019-02-08T08:15:29.684Z,14.63
2019-02-08T08:18:08.321Z,14.57
2019-02-08T08:20:59.833Z,13.50
2019-02-08T08:23:47.987Z,13.33
2019-02-08T08:26:38.175Z,14.40
2019-02-08T08:29:24.687Z,13.17
2019-02-08T08:32:03.098Z,13.13
2019-02-08T08:34:49.056Z,12.57
2019-02-08T08:38:05.494Z,14.80
2019-02-08T08:41:10.276Z,12.67
2019-02-08T08:44:20.183Z,14.30
2019-02-08T08:47:05.315Z,12.10
2019-02-08T08:50:08.093Z,12.97
2019-02-08T08:53:26.463Z,12.50
2019-02-08T08:56:20.171Z,13.70
2019-02-08T08:59:32.742Z,11.97
2019-02-08T09:02:26.127Z,14.10
2019-02-08T09:05:32.103Z,11.93
2019-02-08T09:09:00.846Z,13.17
2019-02-08T09:11:40.503Z,12.27
2019-02-08T09:15:06.098Z,13.63
2019-02-08T09:18:08.672Z,12.17
2019-02-08T09:21:13.782Z,14.07
2019-02-08T09:24:12.526Z,12.80
2019-02-08T09:27:36.994Z,14.20
2019-02-08T09:30:58.391Z,12.47
2019-02-08T09:33:59.546Z,13.53
2019-02-08T09:37:01.843Z,12.90
2019-02-08T09:40:06.848Z,12.43
2019-02-08T09:43:15.433Z,14.40
2019-02-08T09:46:35.275Z,12.00
2019-02-08T09:49:44.391Z,12.43
2019-02-08T09:52:56.127Z,14.20
2019-02-08T09:56:00.003Z,11.87
2019-02-08T09:59:04.813Z,13.73
2019-02-08T10:02:10.698Z,13.13
2019-02-08T10:05:12.445Z,12.07
2019-02-08T10:08:29.230Z,14.60
2019-02-08T10:11:28.172Z,11.87
2019-02-08T10:14:50.786Z,14.07
2019-02-08T10:18:10.349Z,14.60
2019-02-08T10:21:28.604Z,23.90
2019-02-08T10:24:30.238Z,12.77
2019-02-08T10:27:49.366Z,14.83
2019-02-08T10:30:54.322Z,12.37
2019-02-08T10:34:13.851Z,15.20
2019-02-08T10:37:18.026Z,13.60
2019-02-08T10:40:31.525Z,13.03
2019-02-08T10:43:43.535Z,13.53
2019-02-08T10:46:48.379Z,16.33
2019-02-08T10:50:11.546Z,15.33
2019-02-08T10:53:53.178Z,15.10
2019-02-08T10:57:04.406Z,13.97
2019-02-08T11:00:25.263Z,16.07
2019-02-08T11:03:31.335Z,13.90
2019-02-08T11:06:38.667Z,15.87
2019-02-08T11:09:49.062Z,15.33
2019-02-08T11:13:01.558Z,12.87
2019-02-08T11:16:27.179Z,15.13
2019-02-08T11:19:20.655Z,12.33
2019-02-08T11:21:51.468Z,14.80
2019-02-08T11:24:26.035Z,13.10
2019-02-08T11:26:57.554Z,13.53
2019-02-08T11:29:27.003Z,11.70
2019-02-08T11:31:56.168Z,11.57
2019-02-08T11:34:25.493Z,11.53
2019-02-08T11:36:54.966Z,12.87
2019-02-08T11:39:24.225Z,10.73
2019-02-08T11:41:53.558Z,10.67
2019-02-08T11:44:23.487Z,10.97
2019-02-08T11:46:52.874Z,10.47
2019-02-08T11:49:22.116Z,13.40
2019-02-08T11:51:51.266Z,10.17
2019-02-08T11:54:20.584Z,12.23
2019-02-08T11:56:49.832Z,9.87
2019-02-08T11:59:19.050Z,11.77
2019-02-08T12:01:50.303Z,9.30
2019-02-08T12:04:19.701Z,9.73
2019-02-08T12:06:48.874Z,9.47
2019-02-08T12:09:19.345Z,9.10
2019-02-08T12:11:48.606Z,11.07
2019-02-08T12:14:17.887Z,8.87
2019-02-08T12:16:47.142Z,9.10
2019-02-08T12:19:16.299Z,8.47
2019-02-08T12:21:45.475Z,8.57
2019-02-08T12:24:14.610Z,8.50
2019-02-08T12:26:43.862Z,8.30
2019-02-08T12:29:13.101Z,8.30
2019-02-08T12:31:42.394Z,8.67
2019-02-08T12:34:11.713Z,8.77
2019-02-08T12:36:41.088Z,7.93
2019-02-08T12:39:11.738Z,8.77
2019-02-08T12:41:41.989Z,7.70
2019-02-08T12:44:11.841Z,7.53
2019-02-08T12:46:41.094Z,9.33
2019-02-08T12:49:10.349Z,7.40
2019-02-08T12:51:39.659Z,7.53
2019-02-08T12:54:08.999Z,7.33
2019-02-08T12:56:45.148Z,7.60
2019-02-08T12:59:09.225Z,7.53
2019-02-08T13:01:38.407Z,7.60
2019-02-08T13:04:07.744Z,7.90
2019-02-08T13:06:37.162Z,7.50
2019-02-08T13:09:11.297Z,6.87
2019-02-08T13:11:40.807Z,7.60
2019-02-08T13:14:10.077Z,7.53
2019-02-08T13:16:39.342Z,6.70
2019-02-08T13:19:08.832Z,6.77
2019-02-08T13:21:38.281Z,7.00
2019-02-08T13:24:07.503Z,6.00
2019-02-08T13:26:36.906Z,6.60
2019-02-08T13:29:06.264Z,6.40
2019-02-08T13:31:35.595Z,6.70
2019-02-08T13:34:05.548Z,5.97
2019-02-08T13:36:34.775Z,6.10
2019-02-08T13:39:05.814Z,5.80
2019-02-08T13:41:35.119Z,5.97
2019-02-08T13:44:04.395Z,5.93
2019-02-08T13:46:33.712Z,6.07
2019-02-08T13:49:02.985Z,5.67
2019-02-08T13:51:32.185Z,5.67
2019-02-08T13:54:01.427Z,5.40
2019-02-08T13:56:30.584Z,6.10
2019-02-08T13:58:59.850Z,6.33
2019-02-08T14:01:29.210Z,5.77
2019-02-08T14:03:58.459Z,5.70
2019-02-08T14:06:27.599Z,5.40
2019-02-08T14:08:56.774Z,5.90
2019-02-08T14:11:25.942Z,5.40
2019-02-08T14:13:55.224Z,5.83
2019-02-08T14:16:24.431Z,5.57
2019-02-08T14:18:53.679Z,5.80
2019-02-08T14:21:22.903Z,5.83
2019-02-08T14:23:52.141Z,5.70
2019-02-08T14:26:21.374Z,5.57
2019-02-08T14:28:50.563Z,5.17
2019-02-08T14:31:19.935Z,5.40
2019-02-08T14:33:49.463Z,5.33
2019-02-08T14:36:18.792Z,5.97
2019-02-08T14:38:48.087Z,5.40
2019-02-08T14:41:17.341Z,5.17
2019-02-08T14:43:46.655Z,5.33
2019-02-08T14:46:15.831Z,5.67
2019-02-08T14:48:44.974Z,4.67
2019-02-08T14:51:14.227Z,5.13
2019-02-08T14:53:43.487Z,4.90
2019-02-08T14:56:12.956Z,5.40
2019-02-08T14:58:42.207Z,5.37
2019-02-08T15:01:11.534Z,5.20
2019-02-08T15:03:40.760Z,5.27
2019-02-08T15:06:10.079Z,5.23
2019-02-08T15:08:39.231Z,5.07
2019-02-08T15:11:08.522Z,5.27
2019-02-08T15:13:37.668Z,5.57
2019-02-08T15:16:07.123Z,5.70
2019-02-08T15:18:36.511Z,5.20
2019-02-08T15:21:05.767Z,5.43
2019-02-08T15:23:35.003Z,4.30
2019-02-08T15:26:06.142Z,5.30
2019-02-08T15:28:35.427Z,5.23
2019-02-08T15:31:04.678Z,5.10
2019-02-08T15:33:33.973Z,5.10
2019-02-08T15:36:04.609Z,4.63
2019-02-08T15:38:33.745Z,5.40
2019-02-08T15:41:03.049Z,4.57
2019-02-08T15:43:32.396Z,4.90
2019-02-08T15:46:03.707Z,5.23
2019-02-08T15:48:32.990Z,4.83
2019-02-08T15:51:02.299Z,5.30
2019-02-08T15:53:31.538Z,5.27
2019-02-08T15:56:04.879Z,5.53
2019-02-08T15:58:34.583Z,5.57
2019-02-08T16:01:05.278Z,5.37
2019-02-08T16:03:34.526Z,4.80
2019-02-08T16:06:04.071Z,5.43
2019-02-08T16:08:33.385Z,5.47
2019-02-08T16:11:02.611Z,5.67
2019-02-08T16:13:31.804Z,5.00
2019-02-08T16:16:01.021Z,5.40
2019-02-08T16:18:30.261Z,5.03
2019-02-08T16:20:59.684Z,4.80
2019-02-08T16:23:29.084Z,5.17
2019-02-08T16:25:58.233Z,4.67
2019-02-08T16:28:27.559Z,4.93
2019-02-08T16:30:56.735Z,4.53
2019-02-08T16:33:25.911Z,4.33
2019-02-08T16:35:55.059Z,4.67
2019-02-08T16:38:24.367Z,5.17
2019-02-08T16:40:53.609Z,4.50
2019-02-08T16:43:22.782Z,4.57
2019-02-08T16:45:52.011Z,3.70
2019-02-08T16:48:21.391Z,3.77
2019-02-08T16:50:50.612Z,3.60
2019-02-08T16:53:19.889Z,3.53
2019-02-08T16:55:49.114Z,3.33
2019-02-08T16:58:18.394Z,3.63
2019-02-08T17:00:47.643Z,5.33
2019-02-08T17:03:16.809Z,3.00
2019-02-08T17:05:45.950Z,3.00
2019-02-08T17:08:15.234Z,3.40
2019-02-08T17:10:44.373Z,3.43
2019-02-08T17:13:13.609Z,3.30
2019-02-08T17:15:42.964Z,3.33
2019-02-08T17:18:12.237Z,3.43
2019-02-08T17:20:46.305Z,3.40
2019-02-08T17:23:15.524Z,2.70
2019-02-08T17:25:44.870Z,3.27
2019-02-08T17:28:14.039Z,3.20
2019-02-08T17:30:43.189Z,3.10
2019-02-08T17:33:12.621Z,2.90
2019-02-08T17:35:42.012Z,3.27
2019-02-08T17:38:11.194Z,2.80
2019-02-08T17:40:42.339Z,2.87
2019-02-08T17:43:11.794Z,2.87
2019-02-08T17:45:41.054Z,2.63
2019-02-08T17:48:12.903Z,2.73
2019-02-08T17:50:42.150Z,3.30
2019-02-08T17:53:11.375Z,2.80
2019-02-08T17:55:40.554Z,2.73
2019-02-08T17:58:10.003Z,3.10
2019-02-08T18:01:05.830Z,2.90
2019-02-08T18:03:35.054Z,3.30
2019-02-08T18:06:04.423Z,2.50
2019-02-08T18:08:33.609Z,2.40
2019-02-08T18:11:02.868Z,2.70
2019-02-08T18:13:32.082Z,2.97
2019-02-08T18:16:01.374Z,3.07
2019-02-08T18:18:30.660Z,3.40
2019-02-08T18:21:08.949Z,2.80
2019-02-08T18:23:38.175Z,3.03
2019-02-08T18:26:07.430Z,3.33
2019-02-08T18:28:36.893Z,3.07
2019-02-08T18:31:06.083Z,2.80
2019-02-08T18:33:35.514Z,3.03
2019-02-08T18:36:04.706Z,3.17
2019-02-08T18:38:34.594Z,3.27
2019-02-08T18:41:04.171Z,3.27
2019-02-08T18:43:34.329Z,3.50
2019-02-08T18:46:04.198Z,3.13
2019-02-08T18:48:33.642Z,3.03
2019-02-08T18:51:04.047Z,2.80
2019-02-08T18:53:33.378Z,3.37
2019-02-08T18:56:02.566Z,3.27
2019-02-08T18:58:31.799Z,2.73
2019-02-08T19:01:01.064Z,3.03
2019-02-08T19:03:30.306Z,3.17
2019-02-08T19:05:59.831Z,3.73
2019-02-08T19:08:29.133Z,3.10
2019-02-08T19:10:58.332Z,3.20
2019-02-08T19:13:27.557Z,3.20
2019-02-08T19:15:56.797Z,3.07
2019-02-08T19:18:26.030Z,3.80
2019-02-08T19:20:55.363Z,3.13
2019-02-08T19:23:24.666Z,3.10
2019-02-08T19:25:53.926Z,3.27
2019-02-08T19:28:26.441Z,2.80
2019-02-08T19:30:54.050Z,3.17
2019-02-08T19:33:23.291Z,3.17
2019-02-08T19:35:52.542Z,2.87
2019-02-08T19:38:21.794Z,3.07
2019-02-08T19:40:51.040Z,3.27
2019-02-08T19:43:20.241Z,3.03
2019-02-08T19:45:49.609Z,3.40
2019-02-08T19:48:18.847Z,3.10
2019-02-08T19:50:48.134Z,3.30
2019-02-08T19:53:17.355Z,2.90
2019-02-08T19:55:47.918Z,3.33
2019-02-08T19:58:17.182Z,3.07
2019-02-08T20:00:46.358Z,3.10
2019-02-08T20:03:15.494Z,3.57
2019-02-08T20:05:44.717Z,3.77
2019-02-08T20:08:14.736Z,3.53
2019-02-08T20:10:45.971Z,3.73
2019-02-08T20:13:15.231Z,3.27
2019-02-08T20:15:44.457Z,3.33
2019-02-08T20:18:14.192Z,3.37
2019-02-08T20:20:43.410Z,3.20
2019-02-08T20:23:12.671Z,3.07
2019-02-08T20:25:41.903Z,3.43
2019-02-08T20:28:11.413Z,3.30
2019-02-08T20:30:40.739Z,3.27
2019-02-08T20:33:10.189Z,3.50
2019-02-08T20:35:39.334Z,3.23
2019-02-08T20:38:09.731Z,3.10
2019-02-08T20:40:44.292Z,3.40
2019-02-08T20:43:13.538Z,3.33
2019-02-08T20:45:42.787Z,3.40
2019-02-08T20:48:14.978Z,3.47
2019-02-08T20:50:44.225Z,3.20
2019-02-08T20:53:13.474Z,3.67
2019-02-08T20:55:42.823Z,3.30
2019-02-08T20:58:12.949Z,2.90
2019-02-08T21:00:46.210Z,3.50
2019-02-08T21:03:15.969Z,3.30
2019-02-08T21:05:46.518Z,3.77
2019-02-08T21:08:17.673Z,3.50
2019-02-08T21:10:46.963Z,3.50
2019-02-08T21:13:16.211Z,3.20
2019-02-08T21:15:45.547Z,3.03
2019-02-08T21:18:14.789Z,3.20
2019-02-08T21:20:45.053Z,3.13
2019-02-08T21:23:15.134Z,3.50
2019-02-08T21:25:52.101Z,3.10
2019-02-08T21:28:16.067Z,3.00
2019-02-08T21:30:45.295Z,3.40
2019-02-08T21:33:14.869Z,3.30
2019-02-08T21:35:44.699Z,4.07
2019-02-08T21:38:13.947Z,3.07
2019-02-08T21:40:43.348Z,3.23
2019-02-08T21:43:12.851Z,3.50
2019-02-08T21:45:43.499Z,4.20
2019-02-08T21:48:13.653Z,3.20
2019-02-08T21:50:43.320Z,3.13
2019-02-08T21:53:12.666Z,3.30
2019-02-08T21:55:41.811Z,3.17
2019-02-08T21:58:10.985Z,3.50
2019-02-08T22:00:41.751Z,3.17
2019-02-08T22:03:11.697Z,3.50
2019-02-08T22:06:01.316Z,3.10
2019-02-08T22:08:30.657Z,3.43
2019-02-08T22:10:59.941Z,3.37
2019-02-08T22:13:30.253Z,2.87
2019-02-08T22:15:59.564Z,3.43
2019-02-08T22:18:28.886Z,3.30
2019-02-08T22:20:58.144Z,3.00
2019-02-08T22:23:27.922Z,2.83
2019-02-08T22:25:57.147Z,2.97
2019-02-08T22:28:26.503Z,2.90
2019-02-08T22:30:55.727Z,3.20
2019-02-08T22:33:24.901Z,3.00
2019-02-08T22:35:54.819Z,2.83
2019-02-08T22:38:24.071Z,3.00
2019-02-08T22:40:53.294Z,3.00
2019-02-08T22:43:22.542Z,3.20
2019-02-08T22:45:51.773Z,3.37
2019-02-08T22:48:21.110Z,3.10
2019-02-08T22:50:50.339Z,3.33
2019-02-08T22:53:19.560Z,3.57
2019-02-08T22:55:49.342Z,3.17
2019-02-08T22:58:18.583Z,2.87
2019-02-08T23:01:26.897Z,3.43
2019-02-08T23:03:57.423Z,3.23
2019-02-08T23:06:26.770Z,3.07
2019-02-08T23:08:56.030Z,2.73
2019-02-08T23:11:25.458Z,2.77
2019-02-08T23:13:54.775Z,2.70
2019-02-08T23:16:24.122Z,3.40
2019-02-08T23:18:53.280Z,2.77
2019-02-08T23:21:22.526Z,3.40
2019-02-08T23:23:51.671Z,2.97
2019-02-08T23:26:20.910Z,3.43
2019-02-08T23:28:50.136Z,3.13
2019-02-08T23:31:19.306Z,3.43
2019-02-08T23:33:48.539Z,3.30
2019-02-08T23:36:17.777Z,3.50
2019-02-08T23:38:47.040Z,3.03
2019-02-08T23:41:16.222Z,3.00
2019-02-08T23:43:45.502Z,3.00
2019-02-08T23:46:14.747Z,3.47
2019-02-08T23:48:43.974Z,2.97
2019-02-08T23:51:13.490Z,3.30
2019-02-08T23:53:42.704Z,3.03
2019-02-08T23:56:11.955Z,3.10
2019-02-08T23:58:41.198Z,3.40
